createdAt,value
2019-03-13T00:01:47.870Z,5.13
2019-03-13T00:04:15.380Z,5.13
2019-03-13T00:06:42.981Z,5.14
2019-03-13T00:09:10.619Z,5.15
2019-03-13T00:11:38.500Z,5.15
2019-03-13T00:14:07.234Z,5.18
2019-03-13T00:16:34.822Z,5.19
2019-03-13T00:19:02.317Z,5.21
2019-03-13T00:21:30.177Z,5.23
2019-03-13T00:23:57.762Z,5.24
2019-03-13T00:26:25.262Z,5.25
2019-03-13T00:28:52.752Z,5.27
2019-03-13T00:31:21.791Z,5.27
2019-03-13T00:33:49.220Z,5.30
2019-03-13T00:36:17.032Z,5.30
2019-03-13T00:38:45.040Z,5.30
2019-03-13T00:41:12.610Z,5.29
2019-03-13T00:43:40.069Z,5.34
2019-03-13T00:46:07.788Z,5.36
2019-03-13T00:48:35.669Z,5.37
2019-03-13T00:51:04.293Z,5.36
2019-03-13T00:53:34.104Z,5.36
2019-03-13T00:56:03.660Z,5.37
2019-03-13T00:58:31.184Z,5.39
2019-03-13T01:01:17.523Z,5.39
2019-03-13T01:04:06.794Z,5.41
2019-03-13T01:06:37.024Z,5.41
2019-03-13T01:09:05.447Z,5.41
2019-03-13T01:11:32.967Z,5.43
2019-03-13T01:14:00.810Z,5.46
2019-03-13T01:16:28.685Z,5.46
2019-03-13T01:18:56.537Z,5.48
2019-03-13T01:21:24.010Z,5.48
2019-03-13T01:23:51.823Z,5.49
2019-03-13T01:26:19.379Z,5.49
2019-03-13T01:28:46.780Z,5.47
2019-03-13T01:31:31.874Z,5.48
2019-03-13T01:34:16.940Z,5.48
2019-03-13T01:36:44.563Z,5.48
2019-03-13T01:39:12.050Z,5.49
2019-03-13T01:41:39.518Z,5.49
2019-03-13T01:44:07.743Z,5.49
2019-03-13T01:46:35.312Z,5.49
2019-03-13T01:49:02.787Z,5.47
2019-03-13T01:51:30.746Z,5.47
2019-03-13T01:53:58.209Z,5.48
2019-03-13T01:56:25.716Z,5.49
2019-03-13T01:58:53.613Z,5.47
2019-03-13T02:01:21.351Z,5.46
2019-03-13T02:03:48.851Z,5.44
2019-03-13T02:06:16.320Z,5.43
2019-03-13T02:08:44.253Z,5.45
2019-03-13T02:11:13.934Z,5.44
2019-03-13T02:13:43.169Z,5.44
2019-03-13T02:16:12.341Z,5.32
2019-03-13T02:18:42.801Z,5.32
2019-03-13T02:21:11.216Z,5.30
2019-03-13T02:23:41.125Z,5.21
2019-03-13T02:26:10.430Z,5.17
2019-03-13T02:28:37.976Z,5.17
2019-03-13T02:31:05.950Z,5.14
2019-03-13T02:33:33.547Z,5.12
2019-03-13T02:36:01.068Z,5.13
2019-03-13T02:38:29.053Z,5.12
2019-03-13T02:40:56.567Z,5.14
2019-03-13T02:43:26.893Z,5.14
2019-03-13T02:45:54.426Z,5.31
2019-03-13T02:48:22.337Z,5.35
2019-03-13T02:50:51.847Z,5.35
2019-03-13T02:53:19.399Z,5.38
2019-03-13T02:55:47.423Z,5.43
2019-03-13T02:58:22.366Z,5.50
2019-03-13T03:01:09.183Z,5.60
2019-03-13T03:03:41.113Z,5.63
2019-03-13T03:06:08.627Z,5.63
2019-03-13T03:08:36.577Z,5.65
2019-03-13T03:11:04.110Z,5.68
2019-03-13T03:13:33.356Z,5.73
2019-03-13T03:16:00.820Z,5.73
2019-03-13T03:18:28.682Z,5.83
2019-03-13T03:20:56.476Z,5.85
2019-03-13T03:23:23.994Z,5.88
2019-03-13T03:25:51.820Z,5.90
2019-03-13T03:28:19.352Z,5.92
2019-03-13T03:30:46.871Z,5.93
2019-03-13T03:33:14.721Z,5.96
2019-03-13T03:35:42.679Z,5.97
2019-03-13T03:38:13.194Z,5.99
2019-03-13T03:40:42.957Z,5.98
2019-03-13T03:43:10.475Z,5.98
2019-03-13T03:45:37.943Z,5.99
2019-03-13T03:48:05.881Z,6.06
2019-03-13T03:50:34.140Z,6.10
2019-03-13T03:53:08.842Z,6.10
2019-03-13T03:55:36.434Z,6.13
2019-03-13T03:58:05.985Z,6.14
2019-03-13T04:00:33.564Z,6.14
2019-03-13T04:03:01.059Z,6.18
2019-03-13T04:05:28.544Z,6.24
2019-03-13T04:07:56.464Z,6.32
2019-03-13T04:10:24.022Z,6.34
2019-03-13T04:12:51.505Z,6.34
2019-03-13T04:15:19.458Z,6.36
2019-03-13T04:17:46.971Z,6.38
2019-03-13T04:20:14.544Z,6.37
2019-03-13T04:22:42.440Z,6.40
2019-03-13T04:25:10.040Z,6.40
2019-03-13T04:27:37.579Z,6.44
2019-03-13T04:30:05.166Z,6.44
2019-03-13T04:32:33.074Z,6.49
2019-03-13T04:35:00.552Z,6.49
2019-03-13T04:37:28.063Z,6.53
2019-03-13T04:39:55.652Z,6.56
2019-03-13T04:42:24.403Z,6.57
2019-03-13T04:44:51.855Z,6.57
2019-03-13T04:47:24.875Z,6.58
2019-03-13T04:49:51.745Z,6.58
2019-03-13T04:52:20.367Z,6.58
2019-03-13T04:54:47.852Z,6.58
2019-03-13T04:57:15.590Z,6.59
2019-03-13T04:59:43.175Z,6.58
2019-03-13T05:02:10.706Z,6.59
2019-03-13T05:04:39.889Z,6.59
2019-03-13T05:07:07.423Z,6.57
2019-03-13T05:09:35.064Z,6.57
2019-03-13T05:12:03.086Z,6.56
2019-03-13T05:14:32.676Z,6.56
2019-03-13T05:17:00.188Z,6.56
2019-03-13T05:19:27.775Z,6.56
2019-03-13T05:21:56.053Z,6.55
2019-03-13T05:24:23.608Z,6.55
2019-03-13T05:26:54.133Z,6.55
2019-03-13T05:29:21.959Z,6.57
2019-03-13T05:31:49.471Z,6.57
2019-03-13T05:34:17.015Z,6.55
2019-03-13T05:36:45.000Z,6.58
2019-03-13T05:39:12.552Z,6.58
2019-03-13T05:41:40.109Z,6.59
2019-03-13T05:44:08.334Z,6.63
2019-03-13T05:46:35.872Z,6.63
2019-03-13T05:49:03.334Z,6.62
2019-03-13T05:51:33.051Z,6.64
2019-03-13T05:54:00.650Z,6.66
2019-03-13T05:56:28.191Z,6.66
2019-03-13T05:58:56.225Z,6.66
2019-03-13T06:01:32.825Z,6.66
2019-03-13T06:04:00.915Z,6.69
2019-03-13T06:06:28.449Z,6.69
2019-03-13T06:08:58.975Z,6.71
2019-03-13T06:11:26.781Z,6.74
2019-03-13T06:13:57.287Z,6.75
2019-03-13T06:16:24.743Z,6.75
2019-03-13T06:18:53.134Z,6.75
2019-03-13T06:21:21.055Z,6.75
2019-03-13T06:23:48.597Z,6.75
2019-03-13T06:26:16.469Z,6.76
2019-03-13T06:28:45.105Z,6.78
2019-03-13T06:31:12.630Z,6.79
2019-03-13T06:33:40.629Z,6.79
2019-03-13T06:36:08.196Z,6.83
2019-03-13T06:38:35.684Z,6.82
2019-03-13T06:41:05.257Z,6.85
2019-03-13T06:43:32.992Z,6.85
2019-03-13T06:46:00.583Z,6.84
2019-03-13T06:48:28.458Z,6.84
2019-03-13T06:50:55.987Z,6.84
2019-03-13T06:53:23.600Z,6.84
2019-03-13T06:55:51.646Z,6.82
2019-03-13T06:58:25.769Z,6.79
2019-03-13T07:01:03.041Z,6.74
2019-03-13T07:03:52.573Z,6.56
2019-03-13T07:06:37.278Z,6.56
2019-03-13T07:09:39.256Z,6.44
2019-03-13T07:12:33.738Z,6.44
2019-03-13T07:15:22.719Z,6.14
2019-03-13T07:18:09.137Z,5.99
2019-03-13T07:20:54.748Z,5.99
2019-03-13T07:23:35.621Z,5.78
2019-03-13T07:26:20.997Z,5.72
2019-03-13T07:29:12.598Z,5.70
2019-03-13T07:32:02.022Z,5.70
2019-03-13T07:34:51.300Z,5.71
2019-03-13T07:37:35.399Z,5.72
2019-03-13T07:40:24.672Z,5.78
2019-03-13T07:43:18.681Z,5.78
2019-03-13T07:46:11.038Z,5.75
2019-03-13T07:49:09.874Z,5.73
2019-03-13T07:52:08.920Z,5.74
2019-03-13T07:54:56.791Z,5.76
2019-03-13T07:57:52.291Z,5.82
2019-03-13T08:00:26.677Z,5.88
2019-03-13T08:02:59.279Z,5.95
2019-03-13T08:05:38.488Z,6.06
2019-03-13T08:08:23.428Z,6.12
2019-03-13T08:11:08.011Z,6.17
2019-03-13T08:14:04.442Z,6.17
2019-03-13T08:16:52.287Z,6.11
2019-03-13T08:19:57.528Z,5.87
2019-03-13T08:22:38.114Z,5.84
2019-03-13T08:25:23.401Z,5.84
2019-03-13T08:28:08.460Z,5.83
2019-03-13T08:30:53.337Z,5.93
2019-03-13T08:33:55.414Z,5.93
2019-03-13T08:36:47.173Z,6.11
2019-03-13T08:39:33.811Z,6.14
2019-03-13T08:42:32.287Z,6.14
2019-03-13T08:45:25.286Z,6.06
2019-03-13T08:48:20.337Z,6.04
2019-03-13T08:50:59.547Z,6.04
2019-03-13T08:53:45.963Z,6.07
2019-03-13T08:56:22.972Z,6.09
2019-03-13T08:59:01.553Z,6.09
2019-03-13T09:01:41.363Z,6.07
2019-03-13T09:04:42.096Z,6.07
2019-03-13T09:07:30.120Z,6.09
2019-03-13T09:10:28.362Z,6.03
2019-03-13T09:13:27.022Z,6.03
2019-03-13T09:16:19.964Z,5.81
2019-03-13T09:19:09.787Z,5.79
2019-03-13T09:21:49.467Z,5.76
2019-03-13T09:24:26.997Z,5.76
2019-03-13T09:27:06.913Z,5.65
2019-03-13T09:30:08.889Z,5.63
2019-03-13T09:32:58.674Z,5.63
2019-03-13T09:35:34.878Z,5.63
2019-03-13T09:38:20.011Z,5.68
2019-03-13T09:41:06.709Z,5.68
2019-03-13T09:44:00.004Z,6.03
2019-03-13T09:46:58.843Z,6.03
2019-03-13T09:49:51.134Z,6.24
2019-03-13T09:52:37.800Z,6.42
2019-03-13T09:55:27.263Z,6.42
2019-03-13T09:58:12.627Z,6.40
2019-03-13T10:00:51.158Z,6.40
2019-03-13T10:03:29.879Z,6.25
2019-03-13T10:06:14.622Z,6.25
2019-03-13T10:09:02.342Z,6.11
2019-03-13T10:11:47.908Z,6.06
2019-03-13T10:14:40.778Z,6.05
2019-03-13T10:17:16.424Z,6.05
2019-03-13T10:20:09.287Z,6.01
2019-03-13T10:22:49.793Z,5.88
2019-03-13T10:25:39.457Z,5.88
2019-03-13T10:28:16.378Z,5.79
2019-03-13T10:31:15.373Z,5.79
2019-03-13T10:34:10.789Z,5.79
2019-03-13T10:36:52.057Z,5.83
2019-03-13T10:39:56.158Z,5.83
2019-03-13T10:43:02.246Z,5.76
2019-03-13T10:45:57.371Z,5.76
2019-03-13T10:48:59.303Z,5.80
2019-03-13T10:51:54.021Z,5.80
2019-03-13T10:54:40.129Z,6.16
2019-03-13T10:57:39.347Z,6.16
2019-03-13T11:00:35.242Z,6.39
2019-03-13T11:03:20.039Z,6.39
2019-03-13T11:06:14.206Z,6.34
2019-03-13T11:09:06.025Z,6.22
2019-03-13T11:11:39.501Z,6.18
2019-03-13T11:14:34.955Z,6.18
2019-03-13T11:17:13.944Z,6.18
2019-03-13T11:20:12.592Z,6.16
2019-03-13T11:22:59.302Z,6.16
2019-03-13T11:25:48.543Z,6.20
2019-03-13T11:28:53.217Z,6.21
2019-03-13T11:31:36.008Z,6.24
2019-03-13T11:34:21.544Z,6.24
2019-03-13T11:37:06.210Z,6.29
2019-03-13T11:39:59.080Z,6.34
2019-03-13T11:42:50.297Z,6.34
2019-03-13T11:45:36.535Z,6.37
2019-03-13T11:48:34.802Z,6.38
2019-03-13T11:51:24.279Z,6.47
2019-03-13T11:54:08.150Z,6.47
2019-03-13T11:56:56.253Z,6.54
2019-03-13T11:59:32.288Z,6.60
2019-03-13T12:02:17.649Z,6.67
2019-03-13T12:05:06.830Z,6.76
2019-03-13T12:07:56.374Z,6.87
2019-03-13T12:10:38.826Z,6.99
2019-03-13T12:13:25.930Z,7.07
2019-03-13T12:15:58.581Z,7.06
2019-03-13T12:18:53.596Z,7.06
2019-03-13T12:21:44.725Z,7.00
2019-03-13T12:24:43.318Z,6.93
2019-03-13T12:27:34.629Z,6.86
2019-03-13T12:30:21.143Z,6.76
2019-03-13T12:33:10.592Z,6.76
2019-03-13T12:35:55.710Z,6.65
2019-03-13T12:38:37.860Z,6.54
2019-03-13T12:41:24.035Z,6.46
2019-03-13T12:44:10.799Z,6.41
2019-03-13T12:47:07.586Z,6.30
2019-03-13T12:49:53.991Z,6.30
2019-03-13T12:52:46.004Z,6.23
2019-03-13T12:55:43.742Z,6.23
2019-03-13T12:58:36.408Z,6.11
2019-03-13T13:01:34.935Z,6.08
2019-03-13T13:04:24.405Z,6.04
2019-03-13T13:07:18.851Z,6.03
2019-03-13T13:10:21.805Z,5.98
2019-03-13T13:13:09.850Z,5.95
2019-03-13T13:16:08.429Z,5.92
2019-03-13T13:18:49.779Z,5.90
2019-03-13T13:21:17.657Z,5.88
2019-03-13T13:23:45.243Z,5.85
2019-03-13T13:26:12.826Z,5.83
2019-03-13T13:28:46.636Z,5.82
2019-03-13T13:31:17.151Z,5.82
2019-03-13T13:33:44.602Z,5.82
2019-03-13T13:36:17.458Z,5.81
2019-03-13T13:38:44.986Z,5.82
2019-03-13T13:41:12.556Z,5.84
2019-03-13T13:43:40.756Z,5.84
2019-03-13T13:46:08.345Z,5.83
2019-03-13T13:48:36.225Z,5.79
2019-03-13T13:51:05.991Z,5.80
2019-03-13T13:53:33.577Z,5.84
2019-03-13T13:56:05.861Z,5.88
2019-03-13T13:58:36.896Z,5.92
2019-03-13T14:01:04.381Z,5.92
2019-03-13T14:03:31.924Z,5.98
2019-03-13T14:05:59.803Z,6.02
2019-03-13T14:08:27.326Z,6.02
2019-03-13T14:10:54.865Z,6.06
2019-03-13T14:13:22.809Z,6.17
2019-03-13T14:15:50.387Z,6.18
2019-03-13T14:18:17.983Z,6.19
2019-03-13T14:20:51.828Z,6.15
2019-03-13T14:23:23.655Z,6.15
2019-03-13T14:25:50.915Z,6.12
2019-03-13T14:28:21.943Z,6.12
2019-03-13T14:30:51.794Z,6.13
2019-03-13T14:33:20.363Z,6.13
2019-03-13T14:35:48.254Z,6.15
2019-03-13T14:38:15.739Z,6.19
2019-03-13T14:40:45.211Z,6.19
2019-03-13T14:43:13.098Z,6.25
2019-03-13T14:45:40.690Z,6.25
2019-03-13T14:48:09.641Z,6.28
2019-03-13T14:50:37.497Z,6.25
2019-03-13T14:55:40.513Z,6.25
2019-03-13T14:58:07.994Z,6.26
2019-03-13T15:00:35.597Z,6.26
2019-03-13T15:03:03.631Z,6.29
2019-03-13T15:05:31.223Z,6.29
2019-03-13T15:08:00.802Z,6.30
2019-03-13T15:10:30.316Z,6.30
2019-03-13T15:13:06.764Z,6.28
2019-03-13T15:15:41.799Z,6.29
2019-03-13T15:18:10.627Z,6.29
2019-03-13T15:20:38.215Z,6.29
2019-03-13T15:23:08.035Z,6.23
2019-03-13T15:25:35.655Z,6.16
2019-03-13T15:28:04.323Z,6.08
2019-03-13T15:30:34.248Z,6.02
2019-03-13T15:33:02.677Z,5.99
2019-03-13T15:35:30.204Z,5.98
2019-03-13T15:37:59.237Z,5.98
2019-03-13T15:40:26.922Z,6.01
2019-03-13T15:42:54.420Z,6.24
2019-03-13T15:45:22.371Z,6.31
2019-03-13T15:47:49.852Z,6.49
2019-03-13T15:50:19.235Z,6.49
2019-03-13T15:52:48.478Z,6.86
2019-03-13T15:55:16.029Z,6.84
2019-03-13T15:57:43.601Z,6.84
2019-03-13T16:00:11.635Z,6.79
2019-03-13T16:02:43.333Z,6.79
2019-03-13T16:05:10.876Z,6.70
2019-03-13T16:07:38.892Z,6.69
2019-03-13T16:10:09.387Z,6.70
2019-03-13T16:12:36.984Z,6.70
2019-03-13T16:15:07.810Z,6.69
2019-03-13T16:17:35.400Z,6.66
2019-03-13T16:20:04.199Z,6.66
2019-03-13T16:22:32.133Z,6.62
2019-03-13T16:24:59.663Z,6.61
2019-03-13T16:27:29.130Z,6.61
2019-03-13T16:29:57.038Z,6.60
2019-03-13T16:32:24.753Z,6.60
2019-03-13T16:34:53.771Z,6.60
2019-03-13T16:37:23.630Z,6.60
2019-03-13T16:39:55.544Z,6.58
2019-03-13T16:42:33.892Z,6.58
2019-03-13T16:45:01.850Z,6.58
2019-03-13T16:47:29.486Z,6.56
2019-03-13T16:50:01.226Z,6.56
2019-03-13T16:52:29.197Z,6.46
2019-03-13T16:54:58.913Z,6.46
2019-03-13T17:00:06.186Z,6.22
2019-03-13T17:02:34.052Z,6.22
2019-03-13T17:05:20.497Z,6.19
2019-03-13T17:07:49.891Z,6.12
2019-03-13T17:10:17.854Z,6.12
2019-03-13T17:12:45.742Z,6.10
2019-03-13T17:15:13.388Z,6.10
2019-03-13T17:17:41.042Z,6.10
2019-03-13T17:20:09.085Z,6.09
2019-03-13T17:22:36.770Z,6.07
2019-03-13T17:25:05.883Z,6.07
2019-03-13T17:27:38.073Z,6.08
2019-03-13T17:30:05.735Z,6.09
2019-03-13T17:32:35.870Z,6.09
2019-03-13T17:35:06.228Z,6.11
2019-03-13T17:37:33.893Z,6.10
2019-03-13T17:40:01.558Z,6.11
2019-03-13T17:42:29.672Z,6.11
2019-03-13T17:44:57.288Z,6.13
2019-03-13T17:47:24.858Z,6.13
2019-03-13T17:49:54.643Z,6.13
2019-03-13T17:52:25.271Z,6.19
2019-03-13T17:55:03.062Z,6.19
2019-03-13T17:57:31.083Z,6.22
2019-03-13T18:00:01.109Z,6.25
2019-03-13T18:02:33.958Z,6.26
2019-03-13T18:05:06.094Z,6.27
2019-03-13T18:07:35.433Z,6.22
2019-03-13T18:10:04.201Z,6.22
2019-03-13T18:12:32.172Z,6.18
2019-03-13T18:14:59.854Z,6.16
2019-03-13T18:17:27.505Z,6.16
2019-03-13T18:19:55.754Z,6.12
2019-03-13T18:22:23.399Z,6.11
2019-03-13T18:24:53.714Z,6.10
2019-03-13T18:27:21.906Z,6.10
2019-03-13T18:29:49.523Z,6.06
2019-03-13T18:32:20.379Z,6.06
2019-03-13T18:34:48.342Z,6.07
2019-03-13T18:37:17.276Z,6.09
2019-03-13T18:39:44.802Z,6.09
2019-03-13T18:42:17.783Z,6.07
2019-03-13T18:44:45.422Z,6.07
2019-03-13T18:47:18.540Z,6.10
2019-03-13T18:49:48.620Z,6.09
2019-03-13T18:52:16.275Z,6.09
2019-03-13T18:54:43.880Z,6.09
2019-03-13T18:57:11.850Z,6.12
2019-03-13T18:59:39.480Z,6.15
2019-03-13T19:02:07.127Z,6.15
2019-03-13T19:04:37.705Z,6.25
2019-03-13T19:07:07.111Z,6.35
2019-03-13T19:09:37.151Z,6.40
2019-03-13T19:12:25.897Z,6.44
2019-03-13T19:15:12.325Z,6.45
2019-03-13T19:18:00.819Z,6.45
2019-03-13T19:20:28.032Z,6.45
2019-03-13T19:23:14.570Z,6.44
2019-03-13T19:26:01.129Z,6.32
2019-03-13T19:28:47.545Z,6.28
2019-03-13T19:31:15.249Z,6.23
2019-03-13T19:34:15.470Z,6.20
2019-03-13T19:39:36.463Z,6.19
2019-03-13T19:45:10.349Z,6.23
2019-03-13T19:47:40.474Z,6.33
2019-03-13T19:53:13.325Z,6.38
2019-03-13T19:55:59.775Z,6.43
2019-03-13T19:58:46.181Z,6.54
2019-03-13T20:01:32.611Z,6.55
2019-03-13T20:04:00.259Z,6.55
2019-03-13T20:06:46.714Z,6.58
2019-03-13T20:09:14.404Z,6.60
2019-03-13T20:12:00.805Z,6.62
2019-03-13T20:14:28.477Z,6.65
2019-03-13T20:17:16.360Z,6.65
2019-03-13T20:19:44.574Z,6.63
2019-03-13T20:22:31.010Z,6.65
2019-03-13T20:24:58.597Z,6.65
2019-03-13T20:27:26.211Z,6.63
2019-03-13T20:30:24.886Z,6.66
2019-03-13T20:32:42.013Z,6.71
2019-03-13T20:35:28.455Z,6.79
2019-03-13T20:38:14.899Z,6.79
2019-03-13T20:41:01.387Z,6.86
2019-03-13T20:43:29.042Z,6.88
2019-03-13T20:46:15.434Z,6.90
2019-03-13T20:48:43.135Z,6.90
2019-03-13T20:51:29.581Z,6.93
2019-03-13T20:53:57.308Z,6.96
2019-03-13T20:56:43.772Z,6.96
2019-03-13T20:59:32.652Z,6.97
2019-03-13T21:02:30.585Z,6.97
2019-03-13T21:05:18.867Z,6.98
2019-03-13T21:07:54.371Z,6.98
2019-03-13T21:13:27.610Z,7.01
2019-03-13T21:15:55.201Z,7.01
2019-03-13T21:18:41.654Z,7.04
2019-03-13T21:21:09.241Z,7.00
2019-03-13T21:23:58.840Z,6.97
2019-03-13T21:26:26.512Z,6.96
2019-03-13T21:29:12.915Z,6.94
2019-03-13T21:31:59.399Z,6.88
2019-03-13T21:34:45.830Z,6.87
2019-03-13T21:37:16.264Z,6.87
2019-03-13T21:39:43.889Z,6.84
2019-03-13T21:42:30.339Z,6.83
2019-03-13T21:45:03.932Z,6.83
2019-03-13T21:47:50.302Z,6.84
2019-03-13T21:50:18.044Z,6.84
2019-03-13T21:55:54.079Z,6.84
2019-03-13T21:58:21.725Z,6.83
2019-03-13T22:05:54.550Z,6.88
2019-03-13T22:08:40.975Z,6.88
2019-03-13T22:11:08.535Z,6.88
2019-03-13T22:14:07.158Z,6.88
2019-03-13T22:16:43.057Z,6.70
2019-03-13T22:19:29.443Z,6.70
2019-03-13T22:21:57.174Z,6.63
2019-03-13T22:24:43.644Z,6.58
2019-03-13T22:27:11.259Z,6.51
2019-03-13T22:29:57.983Z,6.52
2019-03-13T22:32:25.614Z,6.52
2019-03-13T22:35:24.237Z,6.51
2019-03-13T22:40:48.114Z,6.41
2019-03-13T22:43:16.243Z,6.37
2019-03-13T22:46:02.926Z,6.36
2019-03-13T22:48:32.777Z,6.37
2019-03-13T22:51:02.375Z,6.37
2019-03-13T22:59:12.811Z,6.48
2019-03-13T23:01:43.133Z,6.52
2019-03-13T23:09:50.839Z,6.59
2019-03-13T23:12:37.220Z,6.61
2019-03-13T23:15:18.394Z,6.63
2019-03-13T23:17:34.332Z,6.63
2019-03-13T23:20:02.434Z,6.66
2019-03-13T23:22:30.560Z,6.71
2019-03-13T23:25:29.617Z,6.71
2019-03-13T23:27:46.466Z,6.72
2019-03-13T23:30:14.233Z,6.72
2019-03-13T23:32:41.891Z,6.70
2019-03-13T23:35:09.477Z,6.70
2019-03-13T23:37:37.567Z,6.70
2019-03-13T23:40:24.329Z,6.72
2019-03-13T23:45:57.165Z,6.76
2019-03-13T23:48:24.761Z,6.76
2019-03-13T23:50:52.455Z,6.77
2019-03-13T23:53:20.215Z,6.78
2019-03-13T23:55:50.945Z,6.78
2019-03-13T23:58:37.313Z,6.78
